createdAt,value
2018-08-09T00:00:03.334Z,100587.11
2018-08-09T00:02:31.862Z,100587.41
2018-08-09T00:05:00.407Z,100580.66
2018-08-09T00:07:29.066Z,100591.03
2018-08-09T00:09:57.792Z,100594.72
2018-08-09T00:12:26.422Z,100590.32
2018-08-09T00:14:55.015Z,100593.47
2018-08-09T00:17:23.626Z,100598.97
2018-08-09T00:19:53.044Z,100599.58
2018-08-09T00:22:21.664Z,100597.53
2018-08-09T00:24:50.314Z,100591.94
2018-08-09T00:27:18.999Z,100595.23
2018-08-09T00:29:47.588Z,100597.51
2018-08-09T00:32:16.209Z,100595.95
2018-08-09T00:34:44.997Z,100598.83
2018-08-09T00:37:13.642Z,100598.60
2018-08-09T00:39:42.220Z,100601.73
2018-08-09T00:42:10.900Z,100607.70
2018-08-09T00:44:39.522Z,100598.44
2018-08-09T00:47:08.098Z,100613.25
2018-08-09T00:49:36.757Z,100615.52
2018-08-09T00:52:05.507Z,100616.97
2018-08-09T00:54:34.132Z,100620.46
2018-08-09T00:57:03.369Z,100630.15
2018-08-09T00:59:31.978Z,100620.00
2018-08-09T01:02:00.646Z,100626.00
2018-08-09T01:04:29.384Z,100625.66
2018-08-09T01:06:58.578Z,100637.65
2018-08-09T01:09:27.775Z,100635.25
2018-08-09T01:11:56.359Z,100638.23
2018-08-09T01:14:25.134Z,100636.35
2018-08-09T01:16:53.832Z,100635.45
2018-08-09T01:19:22.568Z,100633.73
2018-08-09T01:21:51.178Z,100639.95
2018-08-09T01:24:19.890Z,100641.92
2018-08-09T01:26:48.606Z,100648.77
2018-08-09T01:29:17.210Z,100649.41
2018-08-09T01:31:45.844Z,100651.97
2018-08-09T01:34:14.509Z,100656.20
2018-08-09T01:36:43.091Z,100653.85
2018-08-09T01:39:13.086Z,100654.52
2018-08-09T01:41:51.607Z,100656.94
2018-08-09T01:44:20.165Z,100658.70
2018-08-09T01:46:48.809Z,100663.53
2018-08-09T01:49:17.565Z,100659.31
2018-08-09T01:51:46.114Z,100656.77
2018-08-09T01:54:14.760Z,100658.73
2018-08-09T01:56:43.342Z,100656.20
2018-08-09T01:59:11.983Z,100657.97
2018-08-09T02:01:40.558Z,100666.16
2018-08-09T02:04:09.704Z,100668.12
2018-08-09T02:06:38.242Z,100671.45
2018-08-09T02:09:09.199Z,100669.34
2018-08-09T02:11:37.772Z,100664.12
2018-08-09T02:14:06.890Z,100663.54
2018-08-09T02:16:35.691Z,100664.10
2018-08-09T02:19:04.279Z,100664.24
2018-08-09T02:21:32.915Z,100670.80
2018-08-09T02:24:01.494Z,100668.75
2018-08-09T02:26:30.101Z,100674.11
2018-08-09T02:28:58.630Z,100662.42
2018-08-09T02:31:27.292Z,100611.60
2018-08-09T02:33:55.922Z,100669.91
2018-08-09T02:36:24.452Z,100670.73
2018-08-09T02:38:53.026Z,100666.56
2018-08-09T02:41:21.675Z,100663.26
2018-08-09T02:43:50.289Z,100667.34
2018-08-09T02:46:18.995Z,100672.70
2018-08-09T02:48:48.294Z,100675.67
2018-08-09T02:51:17.288Z,100682.75
2018-08-09T02:53:45.811Z,100681.41
2018-08-09T02:56:14.363Z,100696.02
2018-08-09T02:58:43.138Z,100697.41
2018-08-09T03:01:11.837Z,100699.40
2018-08-09T03:03:40.509Z,100700.50
2018-08-09T03:06:09.180Z,100708.00
2018-08-09T03:08:37.691Z,100712.30
2018-08-09T03:11:06.872Z,100714.61
2018-08-09T03:13:35.598Z,100719.84
2018-08-09T03:16:04.142Z,100719.97
2018-08-09T03:18:32.779Z,100722.08
2018-08-09T03:21:01.381Z,100724.75
2018-08-09T03:23:30.095Z,100726.37
2018-08-09T03:25:58.880Z,100732.37
2018-08-09T03:28:27.566Z,100733.89
2018-08-09T03:30:56.163Z,100737.12
2018-08-09T03:33:24.794Z,100746.16
2018-08-09T03:35:53.633Z,100742.48
2018-08-09T03:38:22.130Z,100748.83
2018-08-09T03:40:50.893Z,100751.52
2018-08-09T03:43:19.454Z,100758.83
2018-08-09T03:45:48.079Z,100762.50
2018-08-09T03:48:16.998Z,100769.09
2018-08-09T03:50:45.684Z,100768.50
2018-08-09T03:53:14.279Z,100771.45
2018-08-09T03:55:43.063Z,100777.29
2018-08-09T03:58:11.860Z,100778.20
2018-08-09T04:00:40.375Z,100779.73
2018-08-09T04:03:09.011Z,100783.96
2018-08-09T04:05:37.629Z,100790.19
2018-08-09T04:08:06.271Z,100794.95
2018-08-09T04:10:34.910Z,100794.81
2018-08-09T04:13:03.519Z,100798.83
2018-08-09T04:15:32.107Z,100794.55
2018-08-09T04:18:00.700Z,100801.86
2018-08-09T04:20:29.440Z,100806.87
2018-08-09T04:22:58.029Z,100812.95
2018-08-09T04:25:26.674Z,100818.31
2018-08-09T04:27:55.269Z,100821.60
2018-08-09T04:30:23.943Z,100821.60
2018-08-09T04:32:52.618Z,100827.69
2018-08-09T04:35:21.192Z,100823.75
2018-08-09T04:37:50.398Z,100820.08
2018-08-09T04:40:18.926Z,100829.45
2018-08-09T04:42:47.613Z,100832.94
2018-08-09T04:45:16.263Z,100836.42
2018-08-09T04:47:44.983Z,100839.17
2018-08-09T04:50:13.567Z,100841.70
2018-08-09T04:52:42.174Z,100845.08
2018-08-09T04:55:11.470Z,100847.63
2018-08-09T04:57:40.124Z,100856.79
2018-08-09T05:00:08.927Z,100861.03
2018-08-09T05:02:37.486Z,100857.10
2018-08-09T05:05:06.174Z,100847.19
2018-08-09T05:07:34.711Z,100851.55
2018-08-09T05:10:09.371Z,100853.81
2018-08-09T05:12:39.195Z,100861.04
2018-08-09T05:15:07.998Z,100871.11
2018-08-09T05:17:36.721Z,100866.75
2018-08-09T05:20:06.452Z,100873.80
2018-08-09T05:22:35.224Z,100874.06
2018-08-09T05:25:04.072Z,100870.84
2018-08-09T05:27:32.595Z,100875.11
2018-08-09T05:30:01.547Z,100879.30
2018-08-09T05:32:30.178Z,100873.27
2018-08-09T05:34:58.755Z,100877.28
2018-08-09T05:37:27.493Z,100882.38
2018-08-09T05:39:56.897Z,100882.83
2018-08-09T05:42:25.481Z,100878.02
2018-08-09T05:44:54.064Z,100878.28
2018-08-09T05:47:22.695Z,100871.23
2018-08-09T05:49:51.229Z,100874.98
2018-08-09T05:52:19.917Z,100876.75
2018-08-09T05:54:49.642Z,100890.69
2018-08-09T05:57:18.964Z,100886.05
2018-08-09T05:59:47.571Z,100892.01
2018-08-09T06:02:16.129Z,100898.12
2018-08-09T06:04:44.879Z,100898.11
2018-08-09T06:07:13.562Z,100902.88
2018-08-09T06:09:42.392Z,100903.66
2018-08-09T06:12:11.035Z,100911.05
2018-08-09T06:14:39.548Z,100905.56
2018-08-09T06:17:08.120Z,100914.27
2018-08-09T06:19:36.734Z,100911.71
2018-08-09T06:22:05.498Z,100915.28
2018-08-09T06:24:34.734Z,100912.75
2018-08-09T06:27:03.592Z,100913.83
2018-08-09T06:29:32.167Z,100913.83
2018-08-09T06:32:00.842Z,100922.06
2018-08-09T06:34:29.502Z,100921.80
2018-08-09T06:36:58.186Z,100926.22
2018-08-09T06:39:27.086Z,100916.88
2018-08-09T06:41:55.872Z,100924.01
2018-08-09T06:44:24.517Z,100922.39
2018-08-09T06:46:53.106Z,100929.21
2018-08-09T06:49:21.726Z,100923.59
2018-08-09T06:51:50.230Z,100929.28
2018-08-09T06:54:18.991Z,100927.40
2018-08-09T06:56:48.599Z,100930.63
2018-08-09T06:59:17.285Z,100928.47
2018-08-09T07:01:46.116Z,100931.87
2018-08-09T07:04:14.658Z,100939.38
2018-08-09T07:06:43.292Z,100945.91
2018-08-09T07:09:12.487Z,100943.13
2018-08-09T07:11:46.323Z,100942.16
2018-08-09T07:14:15.031Z,100945.91
2018-08-09T07:16:43.643Z,100950.84
2018-08-09T07:19:12.338Z,100955.45
2018-08-09T07:21:40.982Z,100959.65
2018-08-09T07:24:09.499Z,100961.84
2018-08-09T07:26:38.147Z,100960.95
2018-08-09T07:29:06.775Z,100973.31
2018-08-09T07:31:35.312Z,100968.45
2018-08-09T07:34:05.531Z,100967.34
2018-08-09T07:36:34.370Z,100964.37
2018-08-09T07:39:03.168Z,100971.59
2018-08-09T07:41:31.791Z,100972.84
2018-08-09T07:44:00.585Z,100970.30
2018-08-09T07:46:29.910Z,100967.92
2018-08-09T07:48:59.182Z,100970.05
2018-08-09T07:51:28.437Z,100971.94
2018-08-09T07:53:57.167Z,100978.94
2018-08-09T07:56:25.751Z,100987.45
2018-08-09T07:58:54.510Z,100998.33
2018-08-09T08:01:23.122Z,100987.45
2018-08-09T08:03:51.782Z,100992.39
2018-08-09T08:06:20.331Z,100993.02
2018-08-09T08:08:48.959Z,100996.48
2018-08-09T08:11:17.573Z,100994.73
2018-08-09T08:13:46.241Z,100997.73
2018-08-09T08:16:14.808Z,101004.66
2018-08-09T08:18:43.509Z,101001.98
2018-08-09T08:21:12.582Z,101003.11
2018-08-09T08:23:41.226Z,100996.17
2018-08-09T08:26:09.928Z,101000.45
2018-08-09T08:28:38.584Z,101006.81
2018-08-09T08:31:09.735Z,101004.70
2018-08-09T08:33:38.313Z,101005.20
2018-08-09T08:36:07.707Z,101004.70
2018-08-09T08:38:36.438Z,101002.73
2018-08-09T08:41:05.114Z,101008.52
2018-08-09T08:43:33.822Z,101012.55
2018-08-09T08:46:02.529Z,101025.20
2018-08-09T08:48:31.215Z,101019.27
2018-08-09T08:50:59.746Z,101020.55
2018-08-09T08:53:28.758Z,101023.93
2018-08-09T08:55:57.334Z,101027.91
2018-08-09T08:58:26.053Z,101037.39
2018-08-09T09:00:54.966Z,101040.58
2018-08-09T09:03:23.740Z,101037.23
2018-08-09T09:05:52.362Z,101039.30
2018-08-09T09:08:21.635Z,101031.48
2018-08-09T09:10:53.706Z,101036.92
2018-08-09T09:13:22.862Z,101038.35
2018-08-09T09:15:51.610Z,101037.49
2018-08-09T09:18:20.253Z,101030.27
2018-08-09T09:20:48.938Z,101036.55
2018-08-09T09:23:17.932Z,101029.30
2018-08-09T09:25:46.515Z,101030.80
2018-08-09T09:28:15.196Z,101024.26
2018-08-09T09:30:43.730Z,101028.15
2018-08-09T09:33:12.267Z,101038.67
2018-08-09T09:35:40.879Z,101051.89
2018-08-09T09:38:10.656Z,101037.69
2018-08-09T09:40:39.903Z,101040.72
2018-08-09T09:43:08.645Z,101037.20
2018-08-09T09:45:37.395Z,101023.20
2018-08-09T09:48:06.529Z,101026.87
2018-08-09T09:50:35.260Z,101028.69
2018-08-09T09:53:03.830Z,101027.52
2018-08-09T09:55:32.446Z,101038.48
2018-08-09T09:58:01.020Z,101032.38
2018-08-09T10:00:33.819Z,101027.86
2018-08-09T10:03:03.187Z,101022.19
2018-08-09T10:05:32.231Z,101019.49
2018-08-09T10:08:00.751Z,101022.72
2018-08-09T10:10:29.889Z,101017.77
2018-08-09T10:12:58.598Z,101025.70
2018-08-09T10:15:27.285Z,101021.75
2018-08-09T10:17:55.967Z,101022.48
2018-08-09T10:20:24.615Z,101025.42
2018-08-09T10:22:53.237Z,101025.71
2018-08-09T10:25:21.882Z,101028.33
2018-08-09T10:27:50.439Z,101025.93
2018-08-09T10:30:19.093Z,101022.27
2018-08-09T10:32:48.406Z,101022.90
2018-08-09T10:35:17.190Z,101025.19
2018-08-09T10:37:45.860Z,101034.55
2018-08-09T10:40:14.631Z,101027.14
2018-08-09T10:42:43.340Z,101027.45
2018-08-09T10:45:11.918Z,101026.30
2018-08-09T10:47:40.543Z,101032.86
2018-08-09T10:50:09.185Z,101028.52
2018-08-09T10:52:37.769Z,101042.22
2018-08-09T10:55:06.994Z,101051.41
2018-08-09T10:57:35.637Z,101044.48
2018-08-09T11:00:06.227Z,101036.02
2018-08-09T11:02:34.804Z,101040.52
2018-08-09T11:05:03.445Z,101039.83
2018-08-09T11:07:31.976Z,101033.25
2018-08-09T11:10:01.231Z,101032.15
2018-08-09T11:12:29.809Z,101031.48
2018-08-09T11:14:58.447Z,101033.84
2018-08-09T11:17:27.799Z,101040.39
2018-08-09T11:19:57.094Z,101029.41
2018-08-09T11:22:25.677Z,101032.50
2018-08-09T11:24:54.365Z,101036.44
2018-08-09T11:27:23.151Z,101041.83
2018-08-09T11:29:51.945Z,101040.07
2018-08-09T11:32:20.591Z,101032.77
2018-08-09T11:34:49.135Z,101022.27
2018-08-09T11:37:18.301Z,101030.83
2018-08-09T11:39:46.992Z,101036.28
2018-08-09T11:42:15.719Z,101036.31
2018-08-09T11:44:44.357Z,101039.95
2018-08-09T11:47:12.972Z,101039.79
2018-08-09T11:49:41.630Z,101053.97
2018-08-09T11:52:10.259Z,101051.64
2018-08-09T11:54:38.996Z,101044.23
2018-08-09T11:57:08.108Z,101057.23
2018-08-09T11:59:36.782Z,101058.95
2018-08-09T12:02:05.665Z,101048.21
2018-08-09T12:04:34.315Z,101046.38
2018-08-09T12:07:03.179Z,101041.17
2018-08-09T12:09:31.814Z,101050.19
2018-08-09T12:12:00.441Z,101037.95
2018-08-09T12:14:29.093Z,101029.75
2018-08-09T12:16:57.792Z,101020.13
2018-08-09T12:19:26.464Z,101020.92
2018-08-09T12:21:55.251Z,101019.54
2018-08-09T12:24:24.250Z,101012.70
2018-08-09T12:26:53.120Z,101017.92
2018-08-09T12:29:21.767Z,101018.44
2018-08-09T12:31:50.505Z,101016.23
2018-08-09T12:34:19.087Z,101007.47
2018-08-09T12:36:47.734Z,101013.02
2018-08-09T12:39:16.356Z,101013.91
2018-08-09T12:41:44.992Z,101005.88
2018-08-09T12:44:14.250Z,101008.64
2018-08-09T12:46:42.886Z,101009.89
2018-08-09T12:49:11.711Z,101015.44
2018-08-09T12:51:41.051Z,101019.84
2018-08-09T12:54:09.705Z,101017.86
2018-08-09T12:56:38.381Z,101020.27
2018-08-09T12:59:07.010Z,101033.39
2018-08-09T13:01:35.755Z,101032.38
2018-08-09T13:04:04.437Z,101021.50
2018-08-09T13:06:33.079Z,101020.73
2018-08-09T13:09:01.809Z,101018.44
2018-08-09T13:11:30.615Z,101016.42
2018-08-09T13:13:59.692Z,101022.94
2018-08-09T13:16:28.667Z,101013.26
2018-08-09T13:18:58.187Z,101010.72
2018-08-09T13:21:27.414Z,101018.89
2018-08-09T13:23:56.134Z,101005.56
2018-08-09T13:26:24.737Z,101013.19
2018-08-09T13:28:53.389Z,101020.23
2018-08-09T13:31:22.849Z,101013.36
2018-08-09T13:33:51.543Z,101010.02
2018-08-09T13:36:20.173Z,101004.20
2018-08-09T13:38:48.796Z,101002.46
2018-08-09T13:41:17.430Z,100995.64
2018-08-09T13:43:46.227Z,101007.46
2018-08-09T13:46:14.852Z,101002.32
2018-08-09T13:48:43.435Z,100990.55
2018-08-09T13:51:12.792Z,100990.03
2018-08-09T13:53:41.342Z,100980.41
2018-08-09T13:56:10.057Z,100979.04
2018-08-09T13:58:38.789Z,100970.98
2018-08-09T14:01:07.988Z,100979.09
2018-08-09T14:03:36.575Z,100980.28
2018-08-09T14:06:05.297Z,100975.75
2018-08-09T14:08:33.940Z,100970.66
2018-08-09T14:11:02.626Z,100975.66
2018-08-09T14:13:31.384Z,100971.68
2018-08-09T14:15:59.997Z,100973.20
2018-08-09T14:18:29.399Z,100966.86
2018-08-09T14:20:57.982Z,100956.28
2018-08-09T14:23:26.600Z,100952.84
2018-08-09T14:25:55.353Z,100953.76
2018-08-09T14:28:24.038Z,100940.81
2018-08-09T14:30:52.825Z,100949.63
2018-08-09T14:33:21.511Z,100945.42
2018-08-09T14:35:50.302Z,100940.17
2018-08-09T14:38:18.928Z,100942.20
2018-08-09T14:40:47.976Z,100928.61
2018-08-09T14:43:16.539Z,100924.42
2018-08-09T14:45:45.487Z,100924.97
2018-08-09T14:48:14.075Z,100924.87
2018-08-09T14:50:42.685Z,100914.78
2018-08-09T14:53:11.291Z,100905.68
2018-08-09T14:55:39.885Z,100910.97
2018-08-09T14:58:08.469Z,100904.71
2018-08-09T15:00:38.002Z,100899.97
2018-08-09T15:03:06.826Z,100902.66
2018-08-09T15:05:35.464Z,100899.25
2018-08-09T15:08:04.165Z,100905.59
2018-08-09T15:10:32.918Z,100895.19
2018-08-09T15:13:01.550Z,100892.19
2018-08-09T15:15:30.283Z,100900.12
2018-08-09T15:17:58.934Z,100902.98
2018-08-09T15:20:27.615Z,100905.67
2018-08-09T15:22:56.260Z,100899.94
2018-08-09T15:25:25.540Z,100901.29
2018-08-09T15:27:54.229Z,100896.23
2018-08-09T15:30:22.985Z,100897.08
2018-08-09T15:32:51.802Z,100896.23
2018-08-09T15:35:20.423Z,100888.84
2018-08-09T15:37:49.131Z,100885.80
2018-08-09T15:40:17.805Z,100882.89
2018-08-09T15:42:46.441Z,100876.67
2018-08-09T15:45:16.218Z,100870.59
2018-08-09T15:47:45.129Z,100871.29
2018-08-09T15:50:16.575Z,100872.97
2018-08-09T15:52:45.330Z,100866.06
2018-08-09T15:55:15.147Z,100866.22
2018-08-09T15:57:43.827Z,100869.29
2018-08-09T16:00:15.583Z,100865.04
2018-08-09T16:02:44.433Z,100857.09
2018-08-09T16:05:13.108Z,100856.07
2018-08-09T16:07:41.979Z,100850.71
2018-08-09T16:10:12.871Z,100843.92
2018-08-09T16:12:41.825Z,100843.23
2018-08-09T16:15:12.708Z,100833.13
2018-08-09T16:17:41.963Z,100835.83
2018-08-09T16:20:11.876Z,100836.52
2018-08-09T16:22:40.913Z,100845.00
2018-08-09T16:25:11.718Z,100849.38
2018-08-09T16:27:40.389Z,100842.45
2018-08-09T16:30:16.611Z,100835.19
2018-08-09T16:32:45.132Z,100822.05
2018-08-09T16:35:14.332Z,100816.98
2018-08-09T16:37:44.622Z,100811.65
2018-08-09T16:40:15.255Z,100804.56
2018-08-09T16:42:44.327Z,100786.59
2018-08-09T16:45:14.723Z,100774.97
2018-08-09T16:47:43.489Z,100763.98
2018-08-09T16:50:15.830Z,100754.53
2018-08-09T16:52:44.907Z,100746.13
2018-08-09T16:55:14.946Z,100748.14
2018-08-09T16:57:43.659Z,100746.46
2018-08-09T17:00:14.243Z,100741.39
2018-08-09T17:02:43.036Z,100742.41
2018-08-09T17:05:14.606Z,100741.05
2018-08-09T17:07:43.522Z,100740.70
2018-08-09T17:10:13.247Z,100725.66
2018-08-09T17:12:42.288Z,100742.74
2018-08-09T17:15:14.020Z,100738.34
2018-08-09T17:17:42.770Z,100739.36
2018-08-09T17:20:16.523Z,100733.95
2018-08-09T17:22:45.878Z,100730.73
2018-08-09T17:25:15.075Z,100736.46
2018-08-09T17:27:45.085Z,100727.70
2018-08-09T17:30:15.159Z,100724.98
2018-08-09T17:32:43.950Z,100726.16
2018-08-09T17:35:14.043Z,100731.22
2018-08-09T17:37:42.799Z,100721.91
2018-08-09T17:40:19.650Z,100724.24
2018-08-09T17:42:49.463Z,100725.05
2018-08-09T17:45:18.758Z,100717.61
2018-08-09T17:47:47.473Z,100713.48
2018-08-09T17:50:16.222Z,100707.55
2018-08-09T17:52:44.843Z,100707.70
2018-08-09T17:55:14.999Z,100718.80
2018-08-09T17:57:44.462Z,100714.38
2018-08-09T18:00:17.715Z,100707.25
2018-08-09T18:02:46.267Z,100699.95
2018-08-09T18:05:14.967Z,100712.55
2018-08-09T18:07:44.222Z,100703.42
2018-08-09T18:10:15.939Z,100694.26
2018-08-09T18:12:45.588Z,100693.00
2018-08-09T18:15:14.155Z,100586.23
2018-08-09T18:17:42.837Z,100696.09
2018-08-09T18:20:15.523Z,100678.39
2018-08-09T18:22:44.836Z,100687.77
2018-08-09T18:25:14.790Z,100688.23
2018-08-09T18:27:43.536Z,100692.58
2018-08-09T18:30:19.901Z,100691.85
2018-08-09T18:32:49.052Z,100703.61
2018-08-09T18:35:18.764Z,100702.88
2018-08-09T18:37:47.596Z,100689.73
2018-08-09T18:40:19.355Z,100687.16
2018-08-09T18:42:48.038Z,100685.91
2018-08-09T18:45:16.804Z,100687.23
2018-08-09T18:47:45.615Z,100677.69
2018-08-09T18:50:18.817Z,100676.31
2018-08-09T18:52:47.578Z,100689.92
2018-08-09T18:55:17.325Z,100702.45
2018-08-09T18:57:45.883Z,100706.08
2018-08-09T19:00:17.871Z,100701.97
2018-08-09T19:02:46.994Z,100702.27
2018-08-09T19:05:16.548Z,100696.48
2018-08-09T19:07:45.291Z,100695.78
2018-08-09T19:10:16.496Z,100701.83
2018-08-09T19:12:45.266Z,100701.08
2018-08-09T19:15:14.307Z,100694.30
2018-08-09T19:17:43.324Z,100670.92
2018-08-09T19:20:21.130Z,100639.75
2018-08-09T19:22:49.846Z,100641.40
2018-08-09T19:25:18.522Z,100640.20
2018-08-09T19:27:47.211Z,100643.04
2018-08-09T19:30:17.211Z,100632.93
2018-08-09T19:32:45.842Z,100631.73
2018-08-09T19:35:15.825Z,100629.53
2018-08-09T19:37:44.510Z,100623.72
2018-08-09T19:40:14.855Z,100618.94
2018-08-09T19:42:43.596Z,100608.08
2018-08-09T19:45:14.402Z,100599.23
2018-08-09T19:47:43.141Z,100602.61
2018-08-09T19:50:14.223Z,100600.33
2018-08-09T19:52:42.888Z,100600.01
2018-08-09T19:55:13.197Z,100599.02
2018-08-09T19:57:43.309Z,100600.41
2018-08-09T20:00:16.100Z,100585.30
2018-08-09T20:02:46.063Z,100579.11
2018-08-09T20:05:14.692Z,100571.51
2018-08-09T20:07:43.699Z,100570.02
2018-08-09T20:10:13.342Z,100563.27
2018-08-09T20:12:42.987Z,100559.19
2018-08-09T20:15:14.278Z,100550.72
2018-08-09T20:17:42.930Z,100536.92
2018-08-09T20:20:13.276Z,100535.48
2018-08-09T20:22:42.478Z,100526.05
2018-08-09T20:25:12.129Z,100524.28
2018-08-09T20:27:41.461Z,100525.56
2018-08-09T20:30:11.830Z,100530.72
2018-08-09T20:32:41.043Z,100535.84
2018-08-09T20:35:12.398Z,100530.49
2018-08-09T20:37:41.911Z,100528.80
2018-08-09T20:40:11.401Z,100525.27
2018-08-09T20:42:40.534Z,100521.39
2018-08-09T20:45:11.026Z,100514.21
2018-08-09T20:47:39.695Z,100504.83
2018-08-09T20:50:10.643Z,100500.81
2018-08-09T20:52:39.893Z,100485.22
2018-08-09T20:55:09.058Z,100473.44
2018-08-09T20:57:38.278Z,100473.10
2018-08-09T21:00:10.154Z,100468.74
2018-08-09T21:02:39.392Z,100458.28
2018-08-09T21:05:08.791Z,100468.23
2018-08-09T21:07:37.410Z,100467.74
2018-08-09T21:10:06.607Z,100470.67
2018-08-09T21:12:35.819Z,100462.92
2018-08-09T21:15:05.081Z,100456.17
2018-08-09T21:17:33.790Z,100443.69
2018-08-09T21:20:02.543Z,100431.91
2018-08-09T21:22:31.101Z,100413.87
2018-08-09T21:24:59.757Z,100411.59
2018-08-09T21:27:28.518Z,100404.27
2018-08-09T21:29:57.376Z,100389.05
2018-08-09T21:32:26.018Z,100383.46
2018-08-09T21:34:54.806Z,100365.37
2018-08-09T21:37:23.436Z,100364.17
2018-08-09T21:39:51.955Z,100368.67
2018-08-09T21:42:20.556Z,100382.41
2018-08-09T21:44:49.118Z,100376.91
2018-08-09T21:47:17.866Z,100374.08
2018-08-09T21:50:25.730Z,100364.22
2018-08-09T21:52:54.350Z,100368.73
2018-08-09T21:55:22.996Z,100363.03
2018-08-09T21:57:51.678Z,100355.28
2018-08-09T22:00:59.128Z,100348.05
2018-08-09T22:03:30.120Z,100339.78
2018-08-09T22:06:04.226Z,100337.11
2018-08-09T22:08:38.086Z,100328.98
2018-08-09T22:11:12.454Z,100314.18
2018-08-09T22:13:46.343Z,100308.53
2018-08-09T22:16:20.265Z,100300.83
2018-08-09T22:18:54.014Z,100292.16
2018-08-09T22:21:27.742Z,100290.70
2018-08-09T22:23:56.388Z,100287.52
2018-08-09T22:26:25.325Z,100277.17
2018-08-09T22:28:54.838Z,100273.82
2018-08-09T22:31:23.438Z,100261.84
2018-08-09T22:33:52.098Z,100247.48
2018-08-09T22:36:20.648Z,100251.91
2018-08-09T22:38:49.394Z,100243.57
2018-08-09T22:41:17.974Z,100241.63
2018-08-09T22:43:47.322Z,100240.55
2018-08-09T22:46:16.075Z,100235.41
2018-08-09T22:48:44.850Z,100223.37
2018-08-09T22:51:13.374Z,100215.73
2018-08-09T22:53:42.114Z,100215.12
2018-08-09T22:56:10.765Z,100217.75
2018-08-09T22:58:39.367Z,100216.63
2018-08-09T23:01:08.699Z,100224.73
2018-08-09T23:03:37.410Z,100227.41
2018-08-09T23:06:06.355Z,100200.80
2018-08-09T23:08:34.946Z,100203.48
2018-08-09T23:11:03.628Z,100211.44
2018-08-09T23:13:32.590Z,100220.77
2018-08-09T23:16:01.248Z,100228.07
2018-08-09T23:18:30.730Z,100233.33
2018-08-09T23:21:00.419Z,100237.80
2018-08-09T23:23:29.183Z,100233.74
2018-08-09T23:25:57.856Z,100228.20
2018-08-09T23:28:26.538Z,100218.74
2018-08-09T23:30:55.130Z,100231.92
2018-08-09T23:33:25.249Z,100230.31
2018-08-09T23:35:53.895Z,100233.55
2018-08-09T23:38:22.625Z,100230.77
2018-08-09T23:40:51.210Z,100226.66
2018-08-09T23:43:19.817Z,100221.33
2018-08-09T23:45:48.500Z,100220.97
2018-08-09T23:48:17.118Z,100217.82
2018-08-09T23:50:45.768Z,100212.05
2018-08-09T23:53:14.542Z,100210.61
2018-08-09T23:55:43.108Z,100190.12
2018-08-09T23:58:11.725Z,100184.30
